sensor_id;sensor_type;location;lat;lon;timestamp;temperature;humidity
9810;DHT22;4944;52.514;13.192;2023-06-22T00:01:00;23.50;99.90
9810;DHT22;4944;52.514;13.192;2023-06-22T00:03:27;23.50;99.90
9810;DHT22;4944;52.514;13.192;2023-06-22T00:05:54;23.50;99.90
9810;DHT22;4944;52.514;13.192;2023-06-22T00:08:22;23.40;99.90
9810;DHT22;4944;52.514;13.192;2023-06-22T00:10:48;23.40;99.90
9810;DHT22;4944;52.514;13.192;2023-06-22T00:13:17;23.30;99.90
9810;DHT22;4944;52.514;13.192;2023-06-22T00:15:44;23.40;99.90
9810;DHT22;4944;52.514;13.192;2023-06-22T00:18:11;23.30;99.90
9810;DHT22;4944;52.514;13.192;2023-06-22T00:20:38;23.30;99.90
9810;DHT22;4944;52.514;13.192;2023-06-22T00:23:06;23.30;99.90
9810;DHT22;4944;52.514;13.192;2023-06-22T00:25:34;23.20;99.90
9810;DHT22;4944;52.514;13.192;2023-06-22T00:28:01;23.20;99.90
9810;DHT22;4944;52.514;13.192;2023-06-22T00:30:31;23.20;99.90
9810;DHT22;4944;52.514;13.192;2023-06-22T00:32:58;23.20;99.90
9810;DHT22;4944;52.514;13.192;2023-06-22T00:35:26;23.20;99.90
9810;DHT22;4944;52.514;13.192;2023-06-22T00:37:54;23.20;99.90
9810;DHT22;4944;52.514;13.192;2023-06-22T00:40:26;23.20;99.90
9810;DHT22;4944;52.514;13.192;2023-06-22T00:42:54;23.10;99.90
9810;DHT22;4944;52.514;13.192;2023-06-22T00:45:21;23.10;99.90
9810;DHT22;4944;52.514;13.192;2023-06-22T00:47:51;23.10;99.90
9810;DHT22;4944;52.514;13.192;2023-06-22T00:50:20;23.10;99.90
9810;DHT22;4944;52.514;13.192;2023-06-22T00:52:50;23.10;99.90
9810;DHT22;4944;52.514;13.192;2023-06-22T00:55:18;23.10;99.90
9810;DHT22;4944;52.514;13.192;2023-06-22T00:57:46;23.00;99.90
9810;DHT22;4944;52.514;13.192;2023-06-22T01:00:14;23.00;99.90
9810;DHT22;4944;52.514;13.192;2023-06-22T01:02:46;23.00;99.90
9810;DHT22;4944;52.514;13.192;2023-06-22T01:05:18;23.00;99.90
9810;DHT22;4944;52.514;13.192;2023-06-22T01:07:57;22.90;99.90
9810;DHT22;4944;52.514;13.192;2023-06-22T01:10:31;22.90;99.90
9810;DHT22;4944;52.514;13.192;2023-06-22T01:13:02;22.90;99.90
9810;DHT22;4944;52.514;13.192;2023-06-22T01:15:33;22.90;99.90
9810;DHT22;4944;52.514;13.192;2023-06-22T01:18:04;22.90;99.90
9810;DHT22;4944;52.514;13.192;2023-06-22T01:20:33;22.80;99.90
9810;DHT22;4944;52.514;13.192;2023-06-22T01:23:08;22.90;99.90
9810;DHT22;4944;52.514;13.192;2023-06-22T01:25:42;22.80;99.90
9810;DHT22;4944;52.514;13.192;2023-06-22T01:28:20;22.80;99.90
9810;DHT22;4944;52.514;13.192;2023-06-22T01:30:51;22.80;99.90
9810;DHT22;4944;52.514;13.192;2023-06-22T01:33:33;22.80;99.90
9810;DHT22;4944;52.514;13.192;2023-06-22T01:36:02;22.80;99.90
9810;DHT22;4944;52.514;13.192;2023-06-22T01:38:29;22.80;99.90
9810;DHT22;4944;52.514;13.192;2023-06-22T01:40:57;22.80;99.90
9810;DHT22;4944;52.514;13.192;2023-06-22T01:43:25;22.70;99.90
9810;DHT22;4944;52.514;13.192;2023-06-22T01:45:55;22.70;99.90
9810;DHT22;4944;52.514;13.192;2023-06-22T01:48:22;22.70;99.90
9810;DHT22;4944;52.514;13.192;2023-06-22T01:50:51;22.70;99.90
9810;DHT22;4944;52.514;13.192;2023-06-22T01:53:20;22.60;99.90
9810;DHT22;4944;52.514;13.192;2023-06-22T01:55:47;22.60;99.90
9810;DHT22;4944;52.514;13.192;2023-06-22T01:58:15;22.60;99.90
9810;DHT22;4944;52.514;13.192;2023-06-22T02:00:46;22.60;99.90
9810;DHT22;4944;52.514;13.192;2023-06-22T02:03:19;22.50;99.90
9810;DHT22;4944;52.514;13.192;2023-06-22T02:05:51;22.50;99.90
9810;DHT22;4944;52.514;13.192;2023-06-22T02:08:21;22.50;99.90
9810;DHT22;4944;52.514;13.192;2023-06-22T02:10:51;22.50;99.90
9810;DHT22;4944;52.514;13.192;2023-06-22T02:13:18;22.50;99.90
9810;DHT22;4944;52.514;13.192;2023-06-22T02:15:46;22.50;99.90
9810;DHT22;4944;52.514;13.192;2023-06-22T02:18:14;22.50;99.90
9810;DHT22;4944;52.514;13.192;2023-06-22T02:20:42;22.40;99.90
9810;DHT22;4944;52.514;13.192;2023-06-22T02:23:09;22.40;99.90
9810;DHT22;4944;52.514;13.192;2023-06-22T02:25:36;22.40;99.90
9810;DHT22;4944;52.514;13.192;2023-06-22T02:28:04;22.40;99.90
9810;DHT22;4944;52.514;13.192;2023-06-22T02:30:31;22.30;99.90
9810;DHT22;4944;52.514;13.192;2023-06-22T02:32:58;22.30;99.90
9810;DHT22;4944;52.514;13.192;2023-06-22T02:35:25;22.40;99.90
9810;DHT22;4944;52.514;13.192;2023-06-22T02:37:54;22.40;99.90
9810;DHT22;4944;52.514;13.192;2023-06-22T02:40:21;22.40;99.90
9810;DHT22;4944;52.514;13.192;2023-06-22T02:42:48;22.40;99.90
9810;DHT22;4944;52.514;13.192;2023-06-22T02:45:15;22.40;99.90
9810;DHT22;4944;52.514;13.192;2023-06-22T02:47:42;22.40;99.90
9810;DHT22;4944;52.514;13.192;2023-06-22T02:50:09;22.50;99.90
9810;DHT22;4944;52.514;13.192;2023-06-22T02:52:37;22.40;99.90
9810;DHT22;4944;52.514;13.192;2023-06-22T02:55:07;22.40;99.90
9810;DHT22;4944;52.514;13.192;2023-06-22T02:57:34;22.30;99.90
9810;DHT22;4944;52.514;13.192;2023-06-22T03:00:03;22.30;99.90
9810;DHT22;4944;52.514;13.192;2023-06-22T03:02:40;22.40;99.90
9810;DHT22;4944;52.514;13.192;2023-06-22T03:05:07;22.40;99.90
9810;DHT22;4944;52.514;13.192;2023-06-22T03:07:39;22.50;99.90
9810;DHT22;4944;52.514;13.192;2023-06-22T03:10:09;22.40;99.90
9810;DHT22;4944;52.514;13.192;2023-06-22T03:12:36;22.40;99.90
9810;DHT22;4944;52.514;13.192;2023-06-22T03:15:05;22.40;99.90
9810;DHT22;4944;52.514;13.192;2023-06-22T03:17:32;22.40;99.90
9810;DHT22;4944;52.514;13.192;2023-06-22T03:19:59;22.50;99.90
9810;DHT22;4944;52.514;13.192;2023-06-22T03:22:26;22.40;99.90
9810;DHT22;4944;52.514;13.192;2023-06-22T03:24:53;22.40;99.90
9810;DHT22;4944;52.514;13.192;2023-06-22T03:27:21;22.40;99.90
9810;DHT22;4944;52.514;13.192;2023-06-22T03:29:48;22.40;99.90
9810;DHT22;4944;52.514;13.192;2023-06-22T03:32:15;22.30;99.90
9810;DHT22;4944;52.514;13.192;2023-06-22T03:34:42;22.30;99.90
9810;DHT22;4944;52.514;13.192;2023-06-22T03:37:12;22.30;99.90
9810;DHT22;4944;52.514;13.192;2023-06-22T03:39:39;22.30;99.90
9810;DHT22;4944;52.514;13.192;2023-06-22T03:42:07;22.30;99.90
9810;DHT22;4944;52.514;13.192;2023-06-22T03:44:35;22.30;99.90
9810;DHT22;4944;52.514;13.192;2023-06-22T03:47:03;22.30;99.90
9810;DHT22;4944;52.514;13.192;2023-06-22T03:49:32;22.30;99.90
9810;DHT22;4944;52.514;13.192;2023-06-22T03:51:59;22.30;99.90
9810;DHT22;4944;52.514;13.192;2023-06-22T03:54:27;22.20;99.90
9810;DHT22;4944;52.514;13.192;2023-06-22T03:56:54;22.20;99.90
9810;DHT22;4944;52.514;13.192;2023-06-22T03:59:21;22.20;99.90
9810;DHT22;4944;52.514;13.192;2023-06-22T04:01:49;22.20;99.90
9810;DHT22;4944;52.514;13.192;2023-06-22T04:04:16;22.20;99.90
9810;DHT22;4944;52.514;13.192;2023-06-22T04:06:43;22.30;99.90
9810;DHT22;4944;52.514;13.192;2023-06-22T04:09:10;22.20;99.90
9810;DHT22;4944;52.514;13.192;2023-06-22T04:11:37;22.20;99.90
9810;DHT22;4944;52.514;13.192;2023-06-22T04:14:04;22.20;99.90
9810;DHT22;4944;52.514;13.192;2023-06-22T04:16:31;22.20;99.90
9810;DHT22;4944;52.514;13.192;2023-06-22T04:18:59;22.10;99.90
9810;DHT22;4944;52.514;13.192;2023-06-22T04:21:26;22.20;99.90
9810;DHT22;4944;52.514;13.192;2023-06-22T04:23:53;22.20;99.90
9810;DHT22;4944;52.514;13.192;2023-06-22T04:26:20;22.20;99.90
9810;DHT22;4944;52.514;13.192;2023-06-22T04:28:47;22.30;99.90
9810;DHT22;4944;52.514;13.192;2023-06-22T04:31:17;22.30;99.90
9810;DHT22;4944;52.514;13.192;2023-06-22T04:33:44;22.40;99.90
9810;DHT22;4944;52.514;13.192;2023-06-22T04:36:12;22.40;99.90
9810;DHT22;4944;52.514;13.192;2023-06-22T04:38:40;22.40;99.90
9810;DHT22;4944;52.514;13.192;2023-06-22T04:41:07;22.40;99.90
9810;DHT22;4944;52.514;13.192;2023-06-22T04:43:39;22.40;99.90
9810;DHT22;4944;52.514;13.192;2023-06-22T04:46:06;22.50;99.90
9810;DHT22;4944;52.514;13.192;2023-06-22T04:48:33;22.50;99.90
9810;DHT22;4944;52.514;13.192;2023-06-22T04:51:00;22.50;99.90
9810;DHT22;4944;52.514;13.192;2023-06-22T04:53:30;22.60;99.90
9810;DHT22;4944;52.514;13.192;2023-06-22T04:56:00;22.70;99.90
9810;DHT22;4944;52.514;13.192;2023-06-22T04:58:29;22.80;99.90
9810;DHT22;4944;52.514;13.192;2023-06-22T05:00:59;22.80;99.90
9810;DHT22;4944;52.514;13.192;2023-06-22T05:03:26;22.80;99.90
9810;DHT22;4944;52.514;13.192;2023-06-22T05:05:53;22.90;99.90
9810;DHT22;4944;52.514;13.192;2023-06-22T05:08:20;23.00;99.90
9810;DHT22;4944;52.514;13.192;2023-06-22T05:10:53;23.00;99.90
9810;DHT22;4944;52.514;13.192;2023-06-22T05:13:20;23.10;99.90
9810;DHT22;4944;52.514;13.192;2023-06-22T05:15:47;23.10;99.90
9810;DHT22;4944;52.514;13.192;2023-06-22T05:18:14;23.10;99.90
9810;DHT22;4944;52.514;13.192;2023-06-22T05:20:41;23.10;99.90
9810;DHT22;4944;52.514;13.192;2023-06-22T05:23:08;23.20;99.90
9810;DHT22;4944;52.514;13.192;2023-06-22T05:25:35;23.20;99.90
9810;DHT22;4944;52.514;13.192;2023-06-22T05:28:03;23.20;99.90
9810;DHT22;4944;52.514;13.192;2023-06-22T05:30:37;23.30;99.90
9810;DHT22;4944;52.514;13.192;2023-06-22T05:33:03;23.20;99.90
9810;DHT22;4944;52.514;13.192;2023-06-22T05:35:31;23.30;99.90
9810;DHT22;4944;52.514;13.192;2023-06-22T05:37:58;23.30;99.90
9810;DHT22;4944;52.514;13.192;2023-06-22T05:40:24;23.30;99.90
9810;DHT22;4944;52.514;13.192;2023-06-22T05:42:52;23.30;99.90
9810;DHT22;4944;52.514;13.192;2023-06-22T05:45:21;23.30;99.90
9810;DHT22;4944;52.514;13.192;2023-06-22T05:47:47;23.30;99.90
9810;DHT22;4944;52.514;13.192;2023-06-22T05:50:14;23.30;99.90
9810;DHT22;4944;52.514;13.192;2023-06-22T05:52:42;23.30;99.90
9810;DHT22;4944;52.514;13.192;2023-06-22T05:55:09;23.40;99.90
9810;DHT22;4944;52.514;13.192;2023-06-22T05:57:36;23.40;99.90
9810;DHT22;4944;52.514;13.192;2023-06-22T06:00:03;23.40;99.90
9810;DHT22;4944;52.514;13.192;2023-06-22T06:02:35;23.40;99.90
9810;DHT22;4944;52.514;13.192;2023-06-22T06:05:02;23.40;99.90
9810;DHT22;4944;52.514;13.192;2023-06-22T06:07:28;23.50;99.90
9810;DHT22;4944;52.514;13.192;2023-06-22T06:09:55;23.50;99.90
9810;DHT22;4944;52.514;13.192;2023-06-22T06:12:22;23.50;99.90
9810;DHT22;4944;52.514;13.192;2023-06-22T06:14:49;23.50;99.90
9810;DHT22;4944;52.514;13.192;2023-06-22T06:17:17;23.60;99.90
9810;DHT22;4944;52.514;13.192;2023-06-22T06:19:48;23.60;99.90
9810;DHT22;4944;52.514;13.192;2023-06-22T06:22:15;23.40;99.90
9810;DHT22;4944;52.514;13.192;2023-06-22T06:24:42;23.50;99.90
9810;DHT22;4944;52.514;13.192;2023-06-22T06:27:09;23.60;99.90
9810;DHT22;4944;52.514;13.192;2023-06-22T06:29:35;23.50;99.90
9810;DHT22;4944;52.514;13.192;2023-06-22T06:32:03;23.60;99.90
9810;DHT22;4944;52.514;13.192;2023-06-22T06:34:30;23.60;99.90
9810;DHT22;4944;52.514;13.192;2023-06-22T06:36:58;23.60;99.90
9810;DHT22;4944;52.514;13.192;2023-06-22T06:39:25;23.70;99.90
9810;DHT22;4944;52.514;13.192;2023-06-22T06:41:51;23.70;99.90
9810;DHT22;4944;52.514;13.192;2023-06-22T06:44:18;23.80;99.90
9810;DHT22;4944;52.514;13.192;2023-06-22T06:46:45;23.80;99.90
9810;DHT22;4944;52.514;13.192;2023-06-22T06:49:12;23.80;99.90
9810;DHT22;4944;52.514;13.192;2023-06-22T06:51:39;23.80;99.90
9810;DHT22;4944;52.514;13.192;2023-06-22T06:54:08;23.90;99.90
9810;DHT22;4944;52.514;13.192;2023-06-22T06:56:35;23.90;99.90
9810;DHT22;4944;52.514;13.192;2023-06-22T06:59:02;23.90;99.90
9810;DHT22;4944;52.514;13.192;2023-06-22T07:01:29;24.00;99.90
9810;DHT22;4944;52.514;13.192;2023-06-22T07:03:59;24.00;99.90
9810;DHT22;4944;52.514;13.192;2023-06-22T07:06:25;24.10;99.90
9810;DHT22;4944;52.514;13.192;2023-06-22T07:08:55;24.20;99.90
9810;DHT22;4944;52.514;13.192;2023-06-22T07:11:23;24.30;99.90
9810;DHT22;4944;52.514;13.192;2023-06-22T07:13:50;24.30;99.90
9810;DHT22;4944;52.514;13.192;2023-06-22T07:16:17;24.40;99.90
9810;DHT22;4944;52.514;13.192;2023-06-22T07:18:44;24.40;99.90
9810;DHT22;4944;52.514;13.192;2023-06-22T07:21:11;24.40;99.90
9810;DHT22;4944;52.514;13.192;2023-06-22T07:23:38;24.40;99.90
9810;DHT22;4944;52.514;13.192;2023-06-22T07:26:05;24.40;99.90
9810;DHT22;4944;52.514;13.192;2023-06-22T07:28:35;24.50;99.90
9810;DHT22;4944;52.514;13.192;2023-06-22T07:31:03;24.50;99.90
9810;DHT22;4944;52.514;13.192;2023-06-22T07:33:30;24.60;99.90
9810;DHT22;4944;52.514;13.192;2023-06-22T07:35:57;24.60;99.90
9810;DHT22;4944;52.514;13.192;2023-06-22T07:38:24;24.70;99.90
9810;DHT22;4944;52.514;13.192;2023-06-22T07:40:51;24.70;99.90
9810;DHT22;4944;52.514;13.192;2023-06-22T07:43:19;24.80;99.90
9810;DHT22;4944;52.514;13.192;2023-06-22T07:45:49;24.80;99.90
9810;DHT22;4944;52.514;13.192;2023-06-22T07:48:20;24.90;99.90
9810;DHT22;4944;52.514;13.192;2023-06-22T07:50:47;24.90;99.90
9810;DHT22;4944;52.514;13.192;2023-06-22T07:53:14;25.00;99.90
9810;DHT22;4944;52.514;13.192;2023-06-22T07:55:41;25.00;99.90
9810;DHT22;4944;52.514;13.192;2023-06-22T07:58:08;25.10;99.90
9810;DHT22;4944;52.514;13.192;2023-06-22T08:00:35;25.00;99.90
9810;DHT22;4944;52.514;13.192;2023-06-22T08:03:03;25.10;99.90
9810;DHT22;4944;52.514;13.192;2023-06-22T08:05:30;25.10;99.90
9810;DHT22;4944;52.514;13.192;2023-06-22T08:07:57;25.10;99.90
9810;DHT22;4944;52.514;13.192;2023-06-22T08:10:24;25.20;99.90
9810;DHT22;4944;52.514;13.192;2023-06-22T08:12:52;25.20;99.90
9810;DHT22;4944;52.514;13.192;2023-06-22T08:15:18;25.20;99.90
9810;DHT22;4944;52.514;13.192;2023-06-22T08:17:45;25.30;99.90
9810;DHT22;4944;52.514;13.192;2023-06-22T08:20:14;25.40;99.90
9810;DHT22;4944;52.514;13.192;2023-06-22T08:22:41;25.40;99.90
9810;DHT22;4944;52.514;13.192;2023-06-22T08:25:09;25.40;99.90
9810;DHT22;4944;52.514;13.192;2023-06-22T08:27:36;25.50;99.90
9810;DHT22;4944;52.514;13.192;2023-06-22T08:30:04;25.50;99.90
9810;DHT22;4944;52.514;13.192;2023-06-22T08:32:31;25.50;99.90
9810;DHT22;4944;52.514;13.192;2023-06-22T08:34:59;25.50;99.90
9810;DHT22;4944;52.514;13.192;2023-06-22T08:37:28;25.60;99.90
9810;DHT22;4944;52.514;13.192;2023-06-22T08:39:57;25.60;99.90
9810;DHT22;4944;52.514;13.192;2023-06-22T08:42:24;25.60;99.90
9810;DHT22;4944;52.514;13.192;2023-06-22T08:44:51;25.60;99.90
9810;DHT22;4944;52.514;13.192;2023-06-22T08:47:19;25.60;99.90
9810;DHT22;4944;52.514;13.192;2023-06-22T08:49:46;25.70;99.90
9810;DHT22;4944;52.514;13.192;2023-06-22T08:52:13;25.70;99.90
9810;DHT22;4944;52.514;13.192;2023-06-22T08:54:42;25.80;99.90
9810;DHT22;4944;52.514;13.192;2023-06-22T08:57:10;25.80;99.90
9810;DHT22;4944;52.514;13.192;2023-06-22T08:59:37;25.80;99.90
9810;DHT22;4944;52.514;13.192;2023-06-22T09:02:04;25.90;99.90
9810;DHT22;4944;52.514;13.192;2023-06-22T09:04:31;25.90;99.90
9810;DHT22;4944;52.514;13.192;2023-06-22T09:07:00;26.00;99.90
9810;DHT22;4944;52.514;13.192;2023-06-22T09:09:27;26.00;99.90
9810;DHT22;4944;52.514;13.192;2023-06-22T09:11:55;26.10;99.90
9810;DHT22;4944;52.514;13.192;2023-06-22T09:14:22;26.10;99.90
9810;DHT22;4944;52.514;13.192;2023-06-22T09:16:49;26.10;99.90
9810;DHT22;4944;52.514;13.192;2023-06-22T09:19:16;26.20;99.90
9810;DHT22;4944;52.514;13.192;2023-06-22T09:21:43;26.20;99.90
9810;DHT22;4944;52.514;13.192;2023-06-22T09:24:10;26.20;99.90
9810;DHT22;4944;52.514;13.192;2023-06-22T09:26:37;26.20;99.90
9810;DHT22;4944;52.514;13.192;2023-06-22T09:29:06;26.20;99.90
9810;DHT22;4944;52.514;13.192;2023-06-22T09:31:33;26.30;99.90
9810;DHT22;4944;52.514;13.192;2023-06-22T09:34:00;26.30;99.90
9810;DHT22;4944;52.514;13.192;2023-06-22T09:36:27;26.40;99.90
9810;DHT22;4944;52.514;13.192;2023-06-22T09:38:53;26.40;99.90
9810;DHT22;4944;52.514;13.192;2023-06-22T09:41:24;26.50;99.90
9810;DHT22;4944;52.514;13.192;2023-06-22T09:43:51;26.50;99.90
9810;DHT22;4944;52.514;13.192;2023-06-22T09:46:19;26.60;99.90
9810;DHT22;4944;52.514;13.192;2023-06-22T09:48:47;26.60;99.90
9810;DHT22;4944;52.514;13.192;2023-06-22T09:51:14;26.70;99.90
9810;DHT22;4944;52.514;13.192;2023-06-22T09:53:41;26.70;99.90
9810;DHT22;4944;52.514;13.192;2023-06-22T09:56:08;26.70;99.90
9810;DHT22;4944;52.514;13.192;2023-06-22T09:58:40;26.70;99.90
9810;DHT22;4944;52.514;13.192;2023-06-22T10:01:07;26.80;99.90
9810;DHT22;4944;52.514;13.192;2023-06-22T10:03:35;26.90;99.90
9810;DHT22;4944;52.514;13.192;2023-06-22T10:06:02;26.90;99.90
9810;DHT22;4944;52.514;13.192;2023-06-22T10:08:29;27.00;99.70
9810;DHT22;4944;52.514;13.192;2023-06-22T10:10:56;27.00;99.30
9810;DHT22;4944;52.514;13.192;2023-06-22T10:13:23;27.10;98.90
9810;DHT22;4944;52.514;13.192;2023-06-22T10:15:50;27.10;99.20
9810;DHT22;4944;52.514;13.192;2023-06-22T10:18:17;27.20;98.70
9810;DHT22;4944;52.514;13.192;2023-06-22T10:20:48;27.30;99.00
9810;DHT22;4944;52.514;13.192;2023-06-22T10:23:15;27.30;99.20
9810;DHT22;4944;52.514;13.192;2023-06-22T10:25:42;27.40;98.90
9810;DHT22;4944;52.514;13.192;2023-06-22T10:28:09;27.40;98.70
9810;DHT22;4944;52.514;13.192;2023-06-22T10:30:36;27.50;99.00
9810;DHT22;4944;52.514;13.192;2023-06-22T10:33:03;27.50;98.90
9810;DHT22;4944;52.514;13.192;2023-06-22T10:35:30;27.60;98.70
9810;DHT22;4944;52.514;13.192;2023-06-22T10:37:59;27.70;98.40
9810;DHT22;4944;52.514;13.192;2023-06-22T10:40:26;27.80;98.00
9810;DHT22;4944;52.514;13.192;2023-06-22T10:42:53;27.90;98.30
9810;DHT22;4944;52.514;13.192;2023-06-22T10:45:20;27.90;98.70
9810;DHT22;4944;52.514;13.192;2023-06-22T10:47:47;27.90;98.60
9810;DHT22;4944;52.514;13.192;2023-06-22T10:50:14;27.90;98.60
9810;DHT22;4944;52.514;13.192;2023-06-22T10:52:41;28.00;98.50
9810;DHT22;4944;52.514;13.192;2023-06-22T10:55:10;28.10;98.40
9810;DHT22;4944;52.514;13.192;2023-06-22T10:57:38;28.20;98.50
9810;DHT22;4944;52.514;13.192;2023-06-22T11:00:09;28.30;98.60
9810;DHT22;4944;52.514;13.192;2023-06-22T11:02:37;28.50;98.50
9810;DHT22;4944;52.514;13.192;2023-06-22T11:05:04;28.60;97.70
9810;DHT22;4944;52.514;13.192;2023-06-22T11:07:31;28.70;97.40
9810;DHT22;4944;52.514;13.192;2023-06-22T11:09:58;28.90;97.60
9810;DHT22;4944;52.514;13.192;2023-06-22T11:12:26;29.00;97.20
9810;DHT22;4944;52.514;13.192;2023-06-22T11:14:53;29.10;97.40
9810;DHT22;4944;52.514;13.192;2023-06-22T11:17:22;29.10;97.30
9810;DHT22;4944;52.514;13.192;2023-06-22T11:19:50;29.20;96.90
9810;DHT22;4944;52.514;13.192;2023-06-22T11:22:17;29.40;96.90
9810;DHT22;4944;52.514;13.192;2023-06-22T11:24:44;29.60;96.80
9810;DHT22;4944;52.514;13.192;2023-06-22T11:27:11;29.80;95.90
9810;DHT22;4944;52.514;13.192;2023-06-22T11:29:39;29.80;95.50
9810;DHT22;4944;52.514;13.192;2023-06-22T11:32:07;29.80;95.60
9810;DHT22;4944;52.514;13.192;2023-06-22T11:34:34;29.80;96.60
9810;DHT22;4944;52.514;13.192;2023-06-22T11:37:01;29.90;96.80
9810;DHT22;4944;52.514;13.192;2023-06-22T11:39:30;29.80;96.10
9810;DHT22;4944;52.514;13.192;2023-06-22T11:41:57;29.70;96.10
9810;DHT22;4944;52.514;13.192;2023-06-22T11:44:24;29.60;96.50
9810;DHT22;4944;52.514;13.192;2023-06-22T11:46:52;29.50;96.80
9810;DHT22;4944;52.514;13.192;2023-06-22T11:49:19;29.50;96.90
9810;DHT22;4944;52.514;13.192;2023-06-22T11:51:46;29.60;97.10
9810;DHT22;4944;52.514;13.192;2023-06-22T11:54:13;29.70;96.90
9810;DHT22;4944;52.514;13.192;2023-06-22T11:56:40;29.70;96.60
9810;DHT22;4944;52.514;13.192;2023-06-22T11:59:07;29.60;96.60
9810;DHT22;4944;52.514;13.192;2023-06-22T12:01:34;29.50;96.50
9810;DHT22;4944;52.514;13.192;2023-06-22T12:04:02;29.40;96.50
9810;DHT22;4944;52.514;13.192;2023-06-22T12:06:31;29.30;96.10
9810;DHT22;4944;52.514;13.192;2023-06-22T12:08:58;29.30;96.80
9810;DHT22;4944;52.514;13.192;2023-06-22T12:11:24;29.50;96.80
9810;DHT22;4944;52.514;13.192;2023-06-22T12:13:51;29.70;97.00
9810;DHT22;4944;52.514;13.192;2023-06-22T12:16:18;29.90;96.60
9810;DHT22;4944;52.514;13.192;2023-06-22T12:18:47;30.10;96.30
9810;DHT22;4944;52.514;13.192;2023-06-22T12:21:15;30.40;96.20
9810;DHT22;4944;52.514;13.192;2023-06-22T12:23:42;30.60;95.50
9810;DHT22;4944;52.514;13.192;2023-06-22T12:26:09;30.80;95.50
9810;DHT22;4944;52.514;13.192;2023-06-22T12:28:36;31.10;95.10
9810;DHT22;4944;52.514;13.192;2023-06-22T12:31:03;31.40;94.70
9810;DHT22;4944;52.514;13.192;2023-06-22T12:33:30;31.40;94.10
9810;DHT22;4944;52.514;13.192;2023-06-22T12:35:57;31.60;93.80
9810;DHT22;4944;52.514;13.192;2023-06-22T12:38:25;31.80;94.10
9810;DHT22;4944;52.514;13.192;2023-06-22T12:40:52;31.80;94.00
9810;DHT22;4944;52.514;13.192;2023-06-22T12:43:19;31.80;94.10
9810;DHT22;4944;52.514;13.192;2023-06-22T12:45:46;31.80;93.80
9810;DHT22;4944;52.514;13.192;2023-06-22T12:48:13;31.70;93.50
9810;DHT22;4944;52.514;13.192;2023-06-22T12:50:39;31.60;93.10
9810;DHT22;4944;52.514;13.192;2023-06-22T12:53:06;31.50;93.20
9810;DHT22;4944;52.514;13.192;2023-06-22T12:55:35;31.40;93.70
9810;DHT22;4944;52.514;13.192;2023-06-22T12:58:02;31.50;94.10
9810;DHT22;4944;52.514;13.192;2023-06-22T13:00:28;31.60;93.90
9810;DHT22;4944;52.514;13.192;2023-06-22T13:02:55;31.70;93.30
9810;DHT22;4944;52.514;13.192;2023-06-22T13:05:22;32.00;93.50
9810;DHT22;4944;52.514;13.192;2023-06-22T13:07:49;32.20;92.80
9810;DHT22;4944;52.514;13.192;2023-06-22T13:10:16;32.30;92.50
9810;DHT22;4944;52.514;13.192;2023-06-22T13:12:44;32.50;92.30
9810;DHT22;4944;52.514;13.192;2023-06-22T13:15:11;32.60;92.20
9810;DHT22;4944;52.514;13.192;2023-06-22T13:17:38;32.70;92.70
9810;DHT22;4944;52.514;13.192;2023-06-22T13:20:06;32.90;92.20
9810;DHT22;4944;52.514;13.192;2023-06-22T13:22:34;32.90;91.70
9810;DHT22;4944;52.514;13.192;2023-06-22T13:25:06;33.00;91.90
9810;DHT22;4944;52.514;13.192;2023-06-22T13:27:33;33.10;90.90
9810;DHT22;4944;52.514;13.192;2023-06-22T13:30:01;33.00;91.60
9810;DHT22;4944;52.514;13.192;2023-06-22T13:32:29;33.20;91.80
9810;DHT22;4944;52.514;13.192;2023-06-22T13:34:56;33.30;91.30
9810;DHT22;4944;52.514;13.192;2023-06-22T13:37:23;33.40;91.20
9810;DHT22;4944;52.514;13.192;2023-06-22T13:39:50;33.50;91.00
9810;DHT22;4944;52.514;13.192;2023-06-22T13:42:17;33.60;91.00
9810;DHT22;4944;52.514;13.192;2023-06-22T13:44:44;33.70;90.70
9810;DHT22;4944;52.514;13.192;2023-06-22T13:47:12;33.70;90.60
9810;DHT22;4944;52.514;13.192;2023-06-22T13:49:39;33.80;89.70
9810;DHT22;4944;52.514;13.192;2023-06-22T13:52:06;33.90;90.10
9810;DHT22;4944;52.514;13.192;2023-06-22T13:54:35;34.00;90.30
9810;DHT22;4944;52.514;13.192;2023-06-22T13:57:02;34.10;90.20
9810;DHT22;4944;52.514;13.192;2023-06-22T13:59:29;34.10;90.00
9810;DHT22;4944;52.514;13.192;2023-06-22T14:01:56;34.20;89.60
9810;DHT22;4944;52.514;13.192;2023-06-22T14:04:25;34.20;89.20
9810;DHT22;4944;52.514;13.192;2023-06-22T14:06:52;34.20;89.50
9810;DHT22;4944;52.514;13.192;2023-06-22T14:09:18;34.20;88.20
9810;DHT22;4944;52.514;13.192;2023-06-22T14:11:45;34.20;89.20
9810;DHT22;4944;52.514;13.192;2023-06-22T14:14:12;34.20;88.00
9810;DHT22;4944;52.514;13.192;2023-06-22T14:16:39;34.30;88.30
9810;DHT22;4944;52.514;13.192;2023-06-22T14:19:06;34.30;88.60
9810;DHT22;4944;52.514;13.192;2023-06-22T14:21:34;34.40;88.20
9810;DHT22;4944;52.514;13.192;2023-06-22T14:24:01;34.50;89.00
9810;DHT22;4944;52.514;13.192;2023-06-22T14:26:28;34.50;88.40
9810;DHT22;4944;52.514;13.192;2023-06-22T14:28:55;34.50;88.00
9810;DHT22;4944;52.514;13.192;2023-06-22T14:31:22;34.60;87.90
9810;DHT22;4944;52.514;13.192;2023-06-22T14:33:49;34.60;87.00
9810;DHT22;4944;52.514;13.192;2023-06-22T14:36:17;34.60;87.60
9810;DHT22;4944;52.514;13.192;2023-06-22T14:38:45;34.60;88.00
9810;DHT22;4944;52.514;13.192;2023-06-22T14:41:12;34.60;87.50
9810;DHT22;4944;52.514;13.192;2023-06-22T14:43:44;34.50;87.80
9810;DHT22;4944;52.514;13.192;2023-06-22T14:46:12;34.60;87.50
9810;DHT22;4944;52.514;13.192;2023-06-22T14:48:39;34.70;87.70
9810;DHT22;4944;52.514;13.192;2023-06-22T14:51:06;34.70;88.40
9810;DHT22;4944;52.514;13.192;2023-06-22T14:53:33;34.80;88.50
9810;DHT22;4944;52.514;13.192;2023-06-22T14:56:01;34.80;86.90
9810;DHT22;4944;52.514;13.192;2023-06-22T14:58:28;34.80;86.80
9810;DHT22;4944;52.514;13.192;2023-06-22T15:00:55;34.90;87.40
9810;DHT22;4944;52.514;13.192;2023-06-22T15:03:22;34.80;86.20
9810;DHT22;4944;52.514;13.192;2023-06-22T15:05:53;34.80;86.30
9810;DHT22;4944;52.514;13.192;2023-06-22T15:08:20;34.90;86.50
9810;DHT22;4944;52.514;13.192;2023-06-22T15:10:47;34.90;86.40
9810;DHT22;4944;52.514;13.192;2023-06-22T15:13:16;34.90;86.10
9810;DHT22;4944;52.514;13.192;2023-06-22T15:15:44;34.80;85.60
9810;DHT22;4944;52.514;13.192;2023-06-22T15:18:11;34.80;86.00
9810;DHT22;4944;52.514;13.192;2023-06-22T15:20:38;34.80;86.70
9810;DHT22;4944;52.514;13.192;2023-06-22T15:23:06;34.80;87.00
9810;DHT22;4944;52.514;13.192;2023-06-22T15:25:34;34.60;86.00
9810;DHT22;4944;52.514;13.192;2023-06-22T15:28:01;34.20;85.90
9810;DHT22;4944;52.514;13.192;2023-06-22T15:30:30;33.90;87.40
9810;DHT22;4944;52.514;13.192;2023-06-22T15:32:57;33.70;87.60
9810;DHT22;4944;52.514;13.192;2023-06-22T15:35:24;33.60;88.20
9810;DHT22;4944;52.514;13.192;2023-06-22T15:37:51;33.70;88.30
9810;DHT22;4944;52.514;13.192;2023-06-22T15:40:17;33.60;87.80
9810;DHT22;4944;52.514;13.192;2023-06-22T15:42:44;33.80;87.90
9810;DHT22;4944;52.514;13.192;2023-06-22T15:45:13;33.80;88.80
9810;DHT22;4944;52.514;13.192;2023-06-22T15:47:41;33.70;88.40